Time;durP1;ratioP1;P1;durP2;ratioP2;P2;SDS_P1;SDS_P2;PMS_P1;PMS_P2;Temp;Humidity;BMP_temperature;BMP_pressure;BME280_temperature;BME280_humidity;BME280_pressure;Samples;Min_cycle;Max_cycle;Signal;HPM_P1;HPM_P2
2022/06/01 00:00:14;;;;;;;;;;;;;;;;;;4955869;28;19933;-65
2022/06/01 00:02:39;;;;;;;;;;;;;;;;;;4957721;28;20008;-65
2022/06/01 00:05:05;;;;;;;;;;;;;;;;;;4953819;28;19941;-65
2022/06/01 00:07:30;;;;;;;;;;;;;;;;;;4959162;28;19929;-64
2022/06/01 00:09:56;;;;;;;;;;;;;;;;;;4957217;28;19933;-64
2022/06/01 00:12:24;;;;;;;;;;;;;;;;;;4962297;28;19953;-64
2022/06/01 00:14:49;;;;;;;;;;;;;;;;;;4958196;28;19992;-65
2022/06/01 00:17:16;;;;;;;;;;;;;;;;;;4956691;28;19921;-63
2022/06/01 00:19:41;;;;;;;;;;;;;;;;;;4960055;28;19929;-65
2022/06/01 00:22:14;;;;;;;;;;;;;;;;;;4965636;28;19984;-64
2022/06/01 00:24:39;;;;;;;;;;;;;;;;;;4959471;28;19969;-64
2022/06/01 00:27:04;;;;;;;;;;;;;;;;;;4959117;28;19964;-66
2022/06/01 00:29:33;;;;;;;;;;;;;;;;;;4958830;28;19918;-64
2022/06/01 00:34:50;;;;;;;;;;;;;;;;;;4958176;28;19926;-64
2022/06/01 00:37:17;;;;;;;;;;;;;;;;;;4957700;28;20012;-64
2022/06/01 00:39:45;;;;;;;;;;;;;;;;;;4952902;28;19918;-65
2022/06/01 00:42:12;;;;;;;;;;;;;;;;;;4943668;28;20016;-64
2022/06/01 00:44:38;;;;;;;;;;;;;;;;;;4958263;28;19926;-63
2022/06/01 00:47:03;;;;;;;;;;;;;;;;;;4961493;28;20004;-65
2022/06/01 00:49:29;;;;;;;;;;;;;;;;;;4957380;28;19918;-65
2022/06/01 00:51:55;;;;;;;;;;;;;;;;;;4954051;28;20788;-64
2022/06/01 00:54:22;;;;;;;;;;;;;;;;;;4959503;28;20048;-63
2022/06/01 00:56:51;;;;;;;;;;;;;;;;;;4959624;28;19925;-64
2022/06/01 00:59:18;;;;;;;;;;;;;;;;;;4953929;28;19917;-64
2022/06/01 01:01:46;;;;;;;;;;;;;;;;;;4955448;28;20550;-64
2022/06/01 01:04:12;;;;;;;;;;;;;;;;;;4949178;28;19918;-64
2022/06/01 01:06:40;;;;;;;;;;;;;;;;;;4960761;28;19936;-64
2022/06/01 01:09:08;;;;;;;;;;;;;;;;;;4972860;28;20888;-63
2022/06/01 01:11:38;;;;;;;;;;;;;;;;;;4957625;28;19976;-64
2022/06/01 01:14:06;;;;;;;;;;;;;;;;;;4957100;28;19918;-64
2022/06/01 01:16:31;;;;;;;;;;;;;;;;;;4946969;28;19932;-63
2022/06/01 01:18:57;;;;;;;;;;;;;;;;;;4956822;28;20250;-64
2022/06/01 01:21:26;;;;;;;;;;;;;;;;;;4957967;28;19917;-64
2022/06/01 01:23:52;;;;;;;;;;;;;;;;;;4943610;28;19917;-64
2022/06/01 01:26:17;;;;;;;;;;;;;;;;;;4956420;28;19936;-64
2022/06/01 01:28:43;;;;;;;;;;;;;;;;;;4958075;28;20393;-64
2022/06/01 01:31:08;;;;;;;;;;;;;;;;;;4963107;28;19933;-63
2022/06/01 01:33:33;;;;;;;;;;;;;;;;;;4962448;28;20376;-64
2022/06/01 01:36:01;;;;;;;;;;;;;;;;;;4957936;28;19930;-65
2022/06/01 01:38:29;;;;;;;;;;;;;;;;;;4959615;28;19931;-64
2022/06/01 01:40:57;;;;;;;;;;;;;;;;;;4953625;28;20891;-63
2022/06/01 01:43:22;;;;;;;;;;;;;;;;;;4957326;28;19922;-65
2022/06/01 01:45:47;;;;;;;;;;;;;;;;;;4954063;28;19933;-65
2022/06/01 01:48:12;;;;;;;;;;;;;;;;;;4959234;28;19960;-64
2022/06/01 01:50:38;;;;;;;;;;;;;;;;;;4956203;28;21947;-64
2022/06/01 01:53:04;;;;;;;;;;;;;;;;;;4953639;28;19930;-63
2022/06/01 01:55:31;;;;;;;;;;;;;;;;;;4960071;28;20120;-63
2022/06/01 01:57:59;;;;;;;;;;;;;;;;;;4956414;28;19945;-64
2022/06/01 02:00:27;;;;;;;;;;;;;;;;;;4957811;28;21130;-62
2022/06/01 02:02:52;;;;;;;;;;;;;;;;;;4956080;28;19945;-64
2022/06/01 02:08:01;;;;;;;;;;;;;;;;;;4956653;28;19922;-63
2022/06/01 02:13:23;;;;;;;;;;;;;;;;;;4962152;28;19981;-64
2022/06/01 02:15:48;;;;;;;;;;;;;;;;;;4952451;28;20045;-65
2022/06/01 02:18:14;;;;;;;;;;;;;;;;;;4958187;28;19922;-63
2022/06/01 02:20:41;;;;;;;;;;;;;;;;;;4956092;28;19922;-63
2022/06/01 02:23:07;;;;;;;;;;;;;;;;;;4960633;28;20009;-62
2022/06/01 02:25:32;;;;;;;;;;;;;;;;;;4963582;28;20050;-65
2022/06/01 02:27:57;;;;;;;;;;;;;;;;;;4943743;28;19922;-64
2022/06/01 02:30:23;;;;;;;;;;;;;;;;;;4962004;28;20747;-63
2022/06/01 02:32:50;;;;;;;;;;;;;;;;;;4957417;28;19929;-64
2022/06/01 02:35:16;;;;;;;;;;;;;;;;;;4960901;28;19928;-65
2022/06/01 02:37:41;;;;;;;;;;;;;;;;;;4956478;28;19964;-65
2022/06/01 02:40:09;;;;;;;;;;;;;;;;;;4960481;28;19960;-64
2022/06/01 02:42:35;;;;;;;;;;;;;;;;;;4942919;28;20361;-64
2022/06/01 02:45:03;;;;;;;;;;;;;;;;;;4959578;28;20008;-63
2022/06/01 02:47:31;;;;;;;;;;;;;;;;;;4962808;28;19929;-64
2022/06/01 02:49:57;;;;;;;;;;;;;;;;;;4959666;28;20918;-63
2022/06/01 02:52:23;;;;;;;;;;;;;;;;;;4962021;28;19928;-63
2022/06/01 02:57:41;;;;;;;;;;;;;;;;;;4960726;28;20325;-64
2022/06/01 03:00:07;;;;;;;;;;;;;;;;;;4957587;28;21658;-64
2022/06/01 03:02:33;;;;;;;;;;;;;;;;;;4960779;28;19922;-65
2022/06/01 03:04:58;;;;;;;;;;;;;;;;;;4961452;28;19932;-64
2022/06/01 03:07:23;;;;;;;;;;;;;;;;;;4955712;28;19926;-64
2022/06/01 03:09:49;;;;;;;;;;;;;;;;;;4958530;28;19926;-63
2022/06/01 03:12:15;;;;;;;;;;;;;;;;;;4961765;28;19930;-65
2022/06/01 03:14:45;;;;;;;;;;;;;;;;;;4963501;28;19921;-63
2022/06/01 03:17:11;;;;;;;;;;;;;;;;;;4962646;28;19933;-64
2022/06/01 03:19:36;;;;;;;;;;;;;;;;;;4960998;28;19957;-64
2022/06/01 03:22:04;;;;;;;;;;;;;;;;;;4941494;28;19921;-64
2022/06/01 03:24:30;;;;;;;;;;;;;;;;;;4960719;28;19918;-62
2022/06/01 03:26:55;;;;;;;;;;;;;;;;;;4964538;28;19924;-64
2022/06/01 03:29:24;;;;;;;;;;;;;;;;;;4962081;28;20448;-64
2022/06/01 03:31:50;;;;;;;;;;;;;;;;;;4943212;28;19984;-64
2022/06/01 03:34:17;;;;;;;;;;;;;;;;;;4958303;28;20821;-65
2022/06/01 03:36:46;;;;;;;;;;;;;;;;;;4945561;28;19969;-63
2022/06/01 03:39:11;;;;;;;;;;;;;;;;;;4959711;28;20419;-64
2022/06/01 03:41:36;;;;;;;;;;;;;;;;;;4950374;28;19926;-64
2022/06/01 03:46:52;;;;;;;;;;;;;;;;;;4960708;28;19930;-63
2022/06/01 03:49:20;;;;;;;;;;;;;;;;;;4940247;28;19918;-63
2022/06/01 03:51:45;;;;;;;;;;;;;;;;;;4959403;28;19928;-64
2022/06/01 03:54:13;;;;;;;;;;;;;;;;;;4961160;28;19922;-63
2022/06/01 03:56:39;;;;;;;;;;;;;;;;;;4962727;28;19976;-64
2022/06/01 03:59:04;;;;;;;;;;;;;;;;;;4960154;28;20887;-64
2022/06/01 04:01:32;;;;;;;;;;;;;;;;;;4956377;28;19921;-63
2022/06/01 04:03:57;;;;;;;;;;;;;;;;;;4943453;28;19958;-66
2022/06/01 04:06:22;;;;;;;;;;;;;;;;;;4965376;28;20404;-63
2022/06/01 04:08:48;;;;;;;;;;;;;;;;;;4956780;28;19951;-64
2022/06/01 04:11:13;;;;;;;;;;;;;;;;;;4960341;28;19925;-64
2022/06/01 04:13:38;;;;;;;;;;;;;;;;;;4958239;28;19918;-64
2022/06/01 04:16:04;;;;;;;;;;;;;;;;;;4955299;28;20644;-64
2022/06/01 04:18:30;;;;;;;;;;;;;;;;;;4961149;28;19924;-64
2022/06/01 04:20:57;;;;;;;;;;;;;;;;;;4960358;28;20807;-64
2022/06/01 04:23:25;;;;;;;;;;;;;;;;;;4959649;28;19928;-65
2022/06/01 04:25:50;;;;;;;;;;;;;;;;;;4956416;28;19973;-65
2022/06/01 04:28:34;;;;;;;;;;;;;;;;;;4958382;28;19975;-64
2022/06/01 04:31:02;;;;;;;;;;;;;;;;;;4964049;28;19922;-65
2022/06/01 04:33:27;;;;;;;;;;;;;;;;;;4957513;28;19992;-64
2022/06/01 04:35:52;;;;;;;;;;;;;;;;;;4958943;28;20055;-64
2022/06/01 04:41:34;;;;;;;;;;;;;;;;;;4959648;28;19980;-64
2022/06/01 04:44:00;;;;;;;;;;;;;;;;;;4962116;28;20944;-64
2022/06/01 04:46:25;;;;;;;;;;;;;;;;;;4947273;28;19925;-64
2022/06/01 04:48:51;;;;;;;;;;;;;;;;;;4959829;28;19925;-64
2022/06/01 04:51:16;;;;;;;;;;;;;;;;;;4953784;28;19929;-65
2022/06/01 04:53:44;;;;;;;;;;;;;;;;;;4954727;28;19944;-63
2022/06/01 04:56:13;;;;;;;;;;;;;;;;;;4959149;28;19922;-64
2022/06/01 04:58:55;;;;;;;;;;;;;;;;;;4941705;28;19929;-63
2022/06/01 05:01:21;;;;;;;;;;;;;;;;;;4928948;28;19922;-64
2022/06/01 05:03:46;;;;;;;;;;;;;;;;;;4942874;28;19925;-64
2022/06/01 05:06:11;;;;;;;;;;;;;;;;;;4944335;28;21823;-64
2022/06/01 05:08:37;;;;;;;;;;;;;;;;;;4948625;28;19921;-63
2022/06/01 05:11:03;;;;;;;;;;;;;;;;;;4926520;28;20030;-64
2022/06/01 05:13:29;;;;;;;;;;;;;;;;;;4944122;28;19950;-63
2022/06/01 05:15:54;;;;;;;;;;;;;;;;;;4929070;28;20000;-64
2022/06/01 05:18:23;;;;;;;;;;;;;;;;;;4948469;28;19918;-63
2022/06/01 05:20:51;;;;;;;;;;;;;;;;;;4918484;28;21980;-64
2022/06/01 05:23:17;;;;;;;;;;;;;;;;;;4943349;28;19948;-62
2022/06/01 05:25:45;;;;;;;;;;;;;;;;;;4926993;28;21136;-63
2022/06/01 05:31:02;;;;;;;;;;;;;;;;;;4962414;28;19917;-64
2022/06/01 05:33:31;;;;;;;;;;;;;;;;;;4963436;28;19921;-64
2022/06/01 05:35:58;;;;;;;;;;;;;;;;;;4961602;28;19932;-64
2022/06/01 05:38:24;;;;;;;;;;;;;;;;;;4954019;28;19918;-65
2022/06/01 05:40:50;;;;;;;;;;;;;;;;;;4954490;28;20047;-64
2022/06/01 05:43:15;;;;;;;;;;;;;;;;;;4956849;28;19957;-64
2022/06/01 05:45:40;;;;;;;;;;;;;;;;;;4962284;28;19926;-64
2022/06/01 05:48:06;;;;;;;;;;;;;;;;;;4969227;28;19918;-64
2022/06/01 05:50:31;;;;;;;;;;;;;;;;;;4967454;28;19928;-65
2022/06/01 05:52:57;;;;;;;;;;;;;;;;;;4971200;28;20767;-65
2022/06/01 05:55:22;;;;;;;;;;;;;;;;;;4950794;28;19921;-65
2022/06/01 05:57:48;;;;;;;;;;;;;;;;;;4968047;28;19929;-63
2022/06/01 06:00:16;;;;;;;;;;;;;;;;;;4964945;28;20280;-64
2022/06/01 06:02:41;;;;;;;;;;;;;;;;;;4963339;28;19952;-64
2022/06/01 06:06:11;;;;;;;;;;;;;;;;;;4960573;28;21528;-64
2022/06/01 06:07:52;;;;;;;;;;;;;;;;;;4962803;28;19921;-64
2022/06/01 06:10:17;;;;;;;;;;;;;;;;;;4961994;28;19933;-64
2022/06/01 06:12:42;;;;;;;;;;;;;;;;;;4959979;28;19930;-64
2022/06/01 06:15:08;;;;;;;;;;;;;;;;;;4959377;28;19924;-64
2022/06/01 06:17:33;;;;;;;;;;;;;;;;;;4943813;28;19926;-64
2022/06/01 06:19:59;;;;;;;;;;;;;;;;;;4957659;28;19921;-64
2022/06/01 06:22:25;;;;;;;;;;;;;;;;;;4958032;28;19976;-64
2022/06/01 06:24:50;;;;;;;;;;;;;;;;;;4964311;28;20804;-64
2022/06/01 06:27:16;;;;;;;;;;;;;;;;;;4966169;28;19925;-63
2022/06/01 06:29:42;;;;;;;;;;;;;;;;;;4961231;28;19960;-65
2022/06/01 06:32:08;;;;;;;;;;;;;;;;;;4965766;28;19917;-63
2022/06/01 06:37:52;;;;;;;;;;;;;;;;;;4964297;28;19968;-62
2022/06/01 06:40:18;;;;;;;;;;;;;;;;;;4963876;28;19922;-61
2022/06/01 06:42:48;;;;;;;;;;;;;;;;;;4962468;28;20027;-59
2022/06/01 06:45:16;;;;;;;;;;;;;;;;;;4964434;28;19925;-59
2022/06/01 06:47:44;;;;;;;;;;;;;;;;;;4960935;28;19968;-59
2022/06/01 06:50:10;;;;;;;;;;;;;;;;;;4959169;28;19926;-60
2022/06/01 06:55:51;;;;;;;;;;;;;;;;;;4958030;28;20588;-59
2022/06/01 06:58:16;;;;;;;;;;;;;;;;;;4962672;28;19922;-59
2022/06/01 07:00:41;;;;;;;;;;;;;;;;;;4960441;28;19991;-58
2022/06/01 07:03:25;;;;;;;;;;;;;;;;;;4958573;28;21970;-59
2022/06/01 07:06:09;;;;;;;;;;;;;;;;;;4945623;28;20033;-59
2022/06/01 07:08:34;;;;;;;;;;;;;;;;;;4961917;28;20000;-59
2022/06/01 07:11:02;;;;;;;;;;;;;;;;;;4956582;28;19961;-59
2022/06/01 07:13:33;;;;;;;;;;;;;;;;;;4957162;28;20495;-59
2022/06/01 07:16:01;;;;;;;;;;;;;;;;;;4958810;28;19929;-59
2022/06/01 07:18:29;;;;;;;;;;;;;;;;;;4957361;28;19925;-59
2022/06/01 07:20:58;;;;;;;;;;;;;;;;;;4960849;28;19929;-59
2022/06/01 07:23:23;;;;;;;;;;;;;;;;;;4958550;28;20052;-59
2022/06/01 07:25:48;;;;;;;;;;;;;;;;;;4959691;28;19926;-59
2022/06/01 07:28:13;;;;;;;;;;;;;;;;;;4955579;28;19922;-60
2022/06/01 07:30:41;;;;;;;;;;;;;;;;;;4964144;28;19929;-60
2022/06/01 07:33:06;;;;;;;;;;;;;;;;;;4955607;28;19945;-60
2022/06/01 07:35:31;;;;;;;;;;;;;;;;;;4958186;28;19929;-60
2022/06/01 07:43:27;;;;;;;;;;;;;;;;;;4960496;28;20527;-61
2022/06/01 07:49:09;;;;;;;;;;;;;;;;;;4967409;28;19937;-61
2022/06/01 07:51:34;;;;;;;;;;;;;;;;;;4963171;28;19922;-61
2022/06/01 07:54:00;;;;;;;;;;;;;;;;;;4960075;28;19949;-61
2022/06/01 07:56:25;;;;;;;;;;;;;;;;;;4960357;28;19928;-61
2022/06/01 07:58:53;;;;;;;;;;;;;;;;;;4957584;28;19917;-61
2022/06/01 08:01:25;;;;;;;;;;;;;;;;;;4968703;28;20463;-61
2022/06/01 08:03:56;;;;;;;;;;;;;;;;;;4964963;28;19965;-61
2022/06/01 08:06:24;;;;;;;;;;;;;;;;;;4962041;28;19932;-60
2022/06/01 08:08:49;;;;;;;;;;;;;;;;;;4963654;28;19953;-61
2022/06/01 08:11:14;;;;;;;;;;;;;;;;;;4955917;28;19930;-61
2022/06/01 08:13:40;;;;;;;;;;;;;;;;;;4957819;28;20003;-61
2022/06/01 08:16:05;;;;;;;;;;;;;;;;;;4963195;28;19956;-61
2022/06/01 08:18:33;;;;;;;;;;;;;;;;;;4960849;28;19937;-61
2022/06/01 08:20:58;;;;;;;;;;;;;;;;;;4960170;28;19926;-61
2022/06/01 08:23:25;;;;;;;;;;;;;;;;;;4958807;28;19928;-61
2022/06/01 08:25:52;;;;;;;;;;;;;;;;;;4961761;28;19929;-61
2022/06/01 08:28:18;;;;;;;;;;;;;;;;;;4962448;28;19921;-61
2022/06/01 08:30:43;;;;;;;;;;;;;;;;;;4962168;28;19922;-61
2022/06/01 08:33:09;;;;;;;;;;;;;;;;;;4964085;28;19967;-62
2022/06/01 08:35:35;;;;;;;;;;;;;;;;;;4963388;28;20052;-61
2022/06/01 08:38:00;;;;;;;;;;;;;;;;;;4961828;28;19984;-62
2022/06/01 08:40:27;;;;;;;;;;;;;;;;;;4959622;28;20017;-61
2022/06/01 08:42:53;;;;;;;;;;;;;;;;;;4955477;28;19921;-61
2022/06/01 08:45:18;;;;;;;;;;;;;;;;;;4961831;28;19972;-61
2022/06/01 08:47:43;;;;;;;;;;;;;;;;;;4942789;28;19996;-62
2022/06/01 08:50:09;;;;;;;;;;;;;;;;;;4957152;28;20384;-61
2022/06/01 08:52:34;;;;;;;;;;;;;;;;;;4941805;28;19922;-62
2022/06/01 08:54:59;;;;;;;;;;;;;;;;;;4961234;28;19926;-62
2022/06/01 08:57:28;;;;;;;;;;;;;;;;;;4961141;28;19924;-62
2022/06/01 08:59:56;;;;;;;;;;;;;;;;;;4959271;28;20060;-62
2022/06/01 09:02:21;;;;;;;;;;;;;;;;;;4962682;28;20877;-62
2022/06/01 09:04:46;;;;;;;;;;;;;;;;;;4960213;28;19918;-62
2022/06/01 09:07:12;;;;;;;;;;;;;;;;;;4958401;28;19922;-64
2022/06/01 09:09:40;;;;;;;;;;;;;;;;;;4959433;28;19922;-62
2022/06/01 09:12:08;;;;;;;;;;;;;;;;;;4959903;28;19993;-62
2022/06/01 09:14:33;;;;;;;;;;;;;;;;;;4944760;28;19945;-62
2022/06/01 09:17:02;;;;;;;;;;;;;;;;;;4958026;28;19922;-62
2022/06/01 09:22:49;;;;;;;;;;;;;;;;;;4958443;28;19949;-62
2022/06/01 09:25:17;;;;;;;;;;;;;;;;;;4961462;28;19918;-62
2022/06/01 09:27:42;;;;;;;;;;;;;;;;;;4967785;28;19932;-61
2022/06/01 09:30:07;;;;;;;;;;;;;;;;;;4961260;28;19918;-61
2022/06/01 09:39:08;;;;;;;;;;;;;;;;;;4962409;28;20021;-62
2022/06/01 09:41:40;;;;;;;;;;;;;;;;;;4963255;28;19989;-62
2022/06/01 09:44:05;;;;;;;;;;;;;;;;;;4962072;28;19957;-62
2022/06/01 09:46:35;;;;;;;;;;;;;;;;;;4946896;28;20012;-61
2022/06/01 09:49:00;;;;;;;;;;;;;;;;;;4965437;28;20025;-61
2022/06/01 09:51:28;;;;;;;;;;;;;;;;;;4968035;28;19949;-61
2022/06/01 09:53:53;;;;;;;;;;;;;;;;;;4955208;28;21622;-61
2022/06/01 09:56:19;;;;;;;;;;;;;;;;;;4958706;28;19934;-61
2022/06/01 10:06:57;;;;;;;;;;;;;;;;;;4963581;28;19922;-61
2022/06/01 10:09:22;;;;;;;;;;;;;;;;;;4957487;28;19937;-62
2022/06/01 10:11:57;;;;;;;;;;;;;;;;;;4948627;28;19925;-62
2022/06/01 10:14:24;;;;;;;;;;;;;;;;;;4965378;28;19918;-62
2022/06/01 10:16:50;;;;;;;;;;;;;;;;;;4961831;28;20894;-61
2022/06/01 10:19:15;;;;;;;;;;;;;;;;;;4965650;28;20005;-61
2022/06/01 10:21:40;;;;;;;;;;;;;;;;;;4960739;28;19953;-61
2022/06/01 10:24:08;;;;;;;;;;;;;;;;;;4964346;28;20285;-63
2022/06/01 10:26:33;;;;;;;;;;;;;;;;;;4957883;28;19933;-62
2022/06/01 10:28:58;;;;;;;;;;;;;;;;;;4957051;28;20607;-62
2022/06/01 10:31:24;;;;;;;;;;;;;;;;;;4960520;28;20372;-62
2022/06/01 10:34:09;;;;;;;;;;;;;;;;;;4963347;28;19922;-63
2022/06/01 10:36:43;;;;;;;;;;;;;;;;;;4962416;28;19930;-63
2022/06/01 10:39:08;;;;;;;;;;;;;;;;;;4955211;28;20159;-63
2022/06/01 10:41:34;;;;;;;;;;;;;;;;;;4964665;28;20699;-64
2022/06/01 10:44:02;;;;;;;;;;;;;;;;;;4960343;28;19921;-63
2022/06/01 10:46:27;;;;;;;;;;;;;;;;;;4955175;28;21840;-62
2022/06/01 10:55:26;;;;;;;;;;;;;;;;;;4958045;28;19956;-63
2022/06/01 10:57:52;;;;;;;;;;;;;;;;;;4954848;28;20426;-63
2022/06/01 11:00:20;;;;;;;;;;;;;;;;;;4953580;28;20464;-63
2022/06/01 11:02:45;;;;;;;;;;;;;;;;;;4959230;28;19922;-63
2022/06/01 11:05:16;;;;;;;;;;;;;;;;;;4956530;28;21916;-63
2022/06/01 11:07:42;;;;;;;;;;;;;;;;;;4957306;28;19918;-63
2022/06/01 11:10:07;;;;;;;;;;;;;;;;;;4944509;28;19984;-64
2022/06/01 11:12:35;;;;;;;;;;;;;;;;;;4955317;28;19930;-63
2022/06/01 11:15:03;;;;;;;;;;;;;;;;;;4957370;28;19926;-62
2022/06/01 11:17:30;;;;;;;;;;;;;;;;;;4956466;28;19961;-63
2022/06/01 11:19:56;;;;;;;;;;;;;;;;;;4962383;28;19929;-62
2022/06/01 11:25:38;;;;;;;;;;;;;;;;;;4957169;28;20003;-63
2022/06/01 11:31:20;;;;;;;;;;;;;;;;;;4960397;28;20447;-63
2022/06/01 11:33:48;;;;;;;;;;;;;;;;;;4958348;28;19984;-63
2022/06/01 11:36:16;;;;;;;;;;;;;;;;;;4950603;28;21776;-63
2022/06/01 11:38:44;;;;;;;;;;;;;;;;;;4949665;28;19961;-63
2022/06/01 11:41:09;;;;;;;;;;;;;;;;;;4957195;28;20017;-63
2022/06/01 11:43:37;;;;;;;;;;;;;;;;;;4958510;28;19967;-63
2022/06/01 11:46:03;;;;;;;;;;;;;;;;;;4958276;28;19921;-63
2022/06/01 11:48:28;;;;;;;;;;;;;;;;;;4955845;28;19922;-63
2022/06/01 11:50:54;;;;;;;;;;;;;;;;;;4961866;28;19937;-64
2022/06/01 11:53:24;;;;;;;;;;;;;;;;;;4957186;28;19921;-64
2022/06/01 11:55:49;;;;;;;;;;;;;;;;;;4963234;28;20302;-64
2022/06/01 12:01:31;;;;;;;;;;;;;;;;;;4963608;28;19925;-62
2022/06/01 12:03:57;;;;;;;;;;;;;;;;;;4946581;28;20396;-63
2022/06/01 12:06:24;;;;;;;;;;;;;;;;;;4963021;28;22010;-63
2022/06/01 12:11:39;;;;;;;;;;;;;;;;;;4963582;28;20452;-63
2022/06/01 12:14:04;;;;;;;;;;;;;;;;;;4961546;28;20017;-62
2022/06/01 12:16:30;;;;;;;;;;;;;;;;;;4962593;28;19930;-64
2022/06/01 12:18:55;;;;;;;;;;;;;;;;;;4960348;28;20412;-63
2022/06/01 12:21:23;;;;;;;;;;;;;;;;;;4961272;28;19922;-62
2022/06/01 12:29:20;;;;;;;;;;;;;;;;;;4962707;28;20591;-64
2022/06/01 12:31:54;;;;;;;;;;;;;;;;;;4962312;28;19926;-62
2022/06/01 12:34:22;;;;;;;;;;;;;;;;;;4961311;28;20072;-63
2022/06/01 12:36:55;;;;;;;;;;;;;;;;;;4963365;28;19930;-62
2022/06/01 12:39:23;;;;;;;;;;;;;;;;;;4960169;28;19922;-62
2022/06/01 12:41:48;;;;;;;;;;;;;;;;;;4943965;28;19917;-62
2022/06/01 12:44:14;;;;;;;;;;;;;;;;;;4961524;28;19921;-62
2022/06/01 12:46:39;;;;;;;;;;;;;;;;;;4963221;28;20423;-62
2022/06/01 12:49:06;;;;;;;;;;;;;;;;;;4958789;28;20047;-64
2022/06/01 12:51:34;;;;;;;;;;;;;;;;;;4956486;28;19922;-62
2022/06/01 12:54:01;;;;;;;;;;;;;;;;;;4956852;28;20048;-62
2022/06/01 12:56:27;;;;;;;;;;;;;;;;;;4957276;28;20043;-62
2022/06/01 12:58:57;;;;;;;;;;;;;;;;;;4963385;28;19919;-62
2022/06/01 13:01:27;;;;;;;;;;;;;;;;;;4961830;28;19921;-62
2022/06/01 13:07:03;;;;;;;;;;;;;;;;;;4962518;28;19921;-62
2022/06/01 13:09:28;;;;;;;;;;;;;;;;;;4945538;28;19922;-62
2022/06/01 13:11:53;;;;;;;;;;;;;;;;;;4944237;28;19925;-64
2022/06/01 13:14:21;;;;;;;;;;;;;;;;;;4960539;28;20028;-64
2022/06/01 13:16:47;;;;;;;;;;;;;;;;;;4960906;28;20025;-63
2022/06/01 13:19:15;;;;;;;;;;;;;;;;;;4936191;28;20008;-63
2022/06/01 13:21:43;;;;;;;;;;;;;;;;;;4952577;28;19918;-63
2022/06/01 13:24:11;;;;;;;;;;;;;;;;;;4951026;28;19976;-62
2022/06/01 13:26:37;;;;;;;;;;;;;;;;;;4956494;28;20614;-62
2022/06/01 13:29:15;;;;;;;;;;;;;;;;;;4960272;28;20007;-62
2022/06/01 13:31:45;;;;;;;;;;;;;;;;;;4957192;28;20606;-62
2022/06/01 13:34:13;;;;;;;;;;;;;;;;;;4953431;28;19937;-63
2022/06/01 13:36:39;;;;;;;;;;;;;;;;;;4954695;28;19976;-62
2022/06/01 13:42:22;;;;;;;;;;;;;;;;;;4963994;28;19964;-63
2022/06/01 13:44:59;;;;;;;;;;;;;;;;;;4958041;28;19926;-63
2022/06/01 13:47:24;;;;;;;;;;;;;;;;;;4953621;28;20370;-63
2022/06/01 13:49:49;;;;;;;;;;;;;;;;;;4951223;28;19922;-63
2022/06/01 13:52:14;;;;;;;;;;;;;;;;;;4956403;28;20150;-63
2022/06/01 13:54:43;;;;;;;;;;;;;;;;;;4956513;28;20633;-63
2022/06/01 14:00:27;;;;;;;;;;;;;;;;;;4957348;28;19949;-63
2022/06/01 14:03:10;;;;;;;;;;;;;;;;;;4960870;28;19979;-62
2022/06/01 14:05:36;;;;;;;;;;;;;;;;;;4940456;28;19922;-62
2022/06/01 14:08:13;;;;;;;;;;;;;;;;;;4967362;28;19921;-63
2022/06/01 14:10:38;;;;;;;;;;;;;;;;;;4965503;28;19963;-63
2022/06/01 14:13:06;;;;;;;;;;;;;;;;;;4962169;28;19925;-62
2022/06/01 14:15:33;;;;;;;;;;;;;;;;;;4962349;28;19933;-62
2022/06/01 14:17:59;;;;;;;;;;;;;;;;;;4964069;28;19964;-63
2022/06/01 14:20:24;;;;;;;;;;;;;;;;;;4963406;28;19928;-62
2022/06/01 14:22:59;;;;;;;;;;;;;;;;;;4960604;28;19925;-62
2022/06/01 14:30:52;;;;;;;;;;;;;;;;;;4965643;28;19922;-62
2022/06/01 14:33:25;;;;;;;;;;;;;;;;;;4962802;28;19968;-62
2022/06/01 14:35:53;;;;;;;;;;;;;;;;;;4960764;28;19956;-62
2022/06/01 14:38:36;;;;;;;;;;;;;;;;;;4955473;28;19926;-62
2022/06/01 14:41:02;;;;;;;;;;;;;;;;;;4964244;28;19928;-62
2022/06/01 14:43:28;;;;;;;;;;;;;;;;;;4964257;28;19918;-62
2022/06/01 14:45:56;;;;;;;;;;;;;;;;;;4962111;28;20011;-61
2022/06/01 14:48:21;;;;;;;;;;;;;;;;;;4961441;28;20071;-62
2022/06/01 14:54:04;;;;;;;;;;;;;;;;;;4958165;28;20019;-62
2022/06/01 14:56:29;;;;;;;;;;;;;;;;;;4966293;28;20413;-62
2022/06/01 14:59:01;;;;;;;;;;;;;;;;;;4955198;28;19957;-62
2022/06/01 15:01:29;;;;;;;;;;;;;;;;;;4958128;28;20044;-62
2022/06/01 15:04:02;;;;;;;;;;;;;;;;;;4957645;28;19996;-62
2022/06/01 15:06:27;;;;;;;;;;;;;;;;;;4958571;28;19929;-62
2022/06/01 15:08:55;;;;;;;;;;;;;;;;;;4957759;28;20063;-62
2022/06/01 15:11:20;;;;;;;;;;;;;;;;;;4962931;28;19917;-61
2022/06/01 15:13:45;;;;;;;;;;;;;;;;;;4945861;28;19921;-62
2022/06/01 15:16:13;;;;;;;;;;;;;;;;;;4960625;28;19932;-62
2022/06/01 15:18:41;;;;;;;;;;;;;;;;;;4959755;28;19968;-62
2022/06/01 15:24:25;;;;;;;;;;;;;;;;;;4956479;28;20950;-62
2022/06/01 15:41:41;;;;;;;;;;;;;;;;;;4960641;28;19979;-62
2022/06/01 15:44:06;;;;;;;;;;;;;;;;;;4965112;28;19925;-62
2022/06/01 15:46:32;;;;;;;;;;;;;;;;;;4964369;28;19965;-62
2022/06/01 15:48:57;;;;;;;;;;;;;;;;;;4966212;28;20848;-62
2022/06/01 15:51:25;;;;;;;;;;;;;;;;;;4968506;28;19917;-63
2022/06/01 15:53:51;;;;;;;;;;;;;;;;;;4954314;28;19918;-62
2022/06/01 15:56:16;;;;;;;;;;;;;;;;;;4947456;28;19981;-62
2022/06/01 16:02:03;;;;;;;;;;;;;;;;;;4963536;28;19932;-62
2022/06/01 16:04:31;;;;;;;;;;;;;;;;;;4943629;28;19918;-65
2022/06/01 16:06:59;;;;;;;;;;;;;;;;;;4959349;28;19918;-62
2022/06/01 16:12:17;;;;;;;;;;;;;;;;;;4962393;28;19929;-63
2022/06/01 16:14:42;;;;;;;;;;;;;;;;;;4958050;28;20424;-63
2022/06/01 16:17:08;;;;;;;;;;;;;;;;;;4957910;28;21805;-62
2022/06/01 16:19:33;;;;;;;;;;;;;;;;;;4960564;28;19948;-63
2022/06/01 16:21:59;;;;;;;;;;;;;;;;;;4961670;28;21115;-63
2022/06/01 16:24:25;;;;;;;;;;;;;;;;;;4960905;28;20393;-62
2022/06/01 16:26:52;;;;;;;;;;;;;;;;;;4957027;28;21043;-63
2022/06/01 16:29:18;;;;;;;;;;;;;;;;;;4943549;28;19936;-63
2022/06/01 16:31:43;;;;;;;;;;;;;;;;;;4959612;28;19925;-64
2022/06/01 16:34:09;;;;;;;;;;;;;;;;;;4957301;28;21935;-63
2022/06/01 16:36:34;;;;;;;;;;;;;;;;;;4941335;28;19926;-63
2022/06/01 16:38:59;;;;;;;;;;;;;;;;;;4957723;28;20701;-63
2022/06/01 16:41:25;;;;;;;;;;;;;;;;;;4960106;28;19929;-63
2022/06/01 16:43:53;;;;;;;;;;;;;;;;;;4954300;28;19940;-63
2022/06/01 16:49:07;;;;;;;;;;;;;;;;;;4956912;28;20012;-64
2022/06/01 16:51:32;;;;;;;;;;;;;;;;;;4979331;28;19922;-65
2022/06/01 16:53:57;;;;;;;;;;;;;;;;;;4960143;28;19929;-65
2022/06/01 16:56:23;;;;;;;;;;;;;;;;;;4960524;28;19926;-64
2022/06/01 16:58:48;;;;;;;;;;;;;;;;;;4959164;28;19922;-65
2022/06/01 17:01:13;;;;;;;;;;;;;;;;;;4962984;28;19991;-62
2022/06/01 17:03:39;;;;;;;;;;;;;;;;;;4965206;28;19925;-63
2022/06/01 17:06:07;;;;;;;;;;;;;;;;;;4947615;28;20883;-63
2022/06/01 17:08:32;;;;;;;;;;;;;;;;;;4948457;28;20127;-63
2022/06/01 17:10:57;;;;;;;;;;;;;;;;;;4963178;28;19921;-64
2022/06/01 17:13:29;;;;;;;;;;;;;;;;;;4968240;28;19925;-63
2022/06/01 17:15:54;;;;;;;;;;;;;;;;;;4947827;28;20401;-63
2022/06/01 17:18:19;;;;;;;;;;;;;;;;;;4961954;28;20008;-64
2022/06/01 17:20:47;;;;;;;;;;;;;;;;;;4964507;28;20213;-63
2022/06/01 17:26:31;;;;;;;;;;;;;;;;;;4965310;28;20040;-65
2022/06/01 17:28:57;;;;;;;;;;;;;;;;;;4960172;28;19924;-63
2022/06/01 17:31:22;;;;;;;;;;;;;;;;;;4963501;28;20939;-63
2022/06/01 17:37:04;;;;;;;;;;;;;;;;;;4965017;28;19968;-63
2022/06/01 17:39:29;;;;;;;;;;;;;;;;;;4965040;28;19926;-63
2022/06/01 17:41:55;;;;;;;;;;;;;;;;;;4958577;28;20924;-63
2022/06/01 17:44:21;;;;;;;;;;;;;;;;;;4961323;28;19929;-64
2022/06/01 17:46:48;;;;;;;;;;;;;;;;;;4963516;28;19929;-63
2022/06/01 17:49:17;;;;;;;;;;;;;;;;;;4961591;28;19932;-63
2022/06/01 17:51:45;;;;;;;;;;;;;;;;;;4961790;28;19925;-64
2022/06/01 17:57:27;;;;;;;;;;;;;;;;;;4960243;28;19965;-63
2022/06/01 17:59:55;;;;;;;;;;;;;;;;;;4956699;28;19921;-63
2022/06/01 18:02:20;;;;;;;;;;;;;;;;;;4959848;28;20618;-63
2022/06/01 18:04:45;;;;;;;;;;;;;;;;;;4958957;28;19929;-63
2022/06/01 18:07:10;;;;;;;;;;;;;;;;;;4943422;28;20432;-63
2022/06/01 18:09:35;;;;;;;;;;;;;;;;;;4958482;28;19921;-63
2022/06/01 18:12:03;;;;;;;;;;;;;;;;;;4960560;28;20028;-63
2022/06/01 18:14:32;;;;;;;;;;;;;;;;;;4944901;28;19929;-63
2022/06/01 18:16:58;;;;;;;;;;;;;;;;;;4959885;28;19948;-63
2022/06/01 18:19:23;;;;;;;;;;;;;;;;;;4963644;28;19921;-63
2022/06/01 18:21:51;;;;;;;;;;;;;;;;;;4958299;28;19921;-63
2022/06/01 18:24:17;;;;;;;;;;;;;;;;;;4955698;28;19987;-63
2022/06/01 18:26:42;;;;;;;;;;;;;;;;;;4965648;28;20855;-63
2022/06/01 18:29:08;;;;;;;;;;;;;;;;;;4943450;28;19984;-63
2022/06/01 18:31:34;;;;;;;;;;;;;;;;;;4963294;28;19921;-63
2022/06/01 18:34:00;;;;;;;;;;;;;;;;;;4954574;28;20592;-63
2022/06/01 18:36:25;;;;;;;;;;;;;;;;;;4945848;28;19936;-62
2022/06/01 18:39:02;;;;;;;;;;;;;;;;;;4964848;28;19929;-63
2022/06/01 18:41:29;;;;;;;;;;;;;;;;;;4946797;28;19937;-62
2022/06/01 18:43:55;;;;;;;;;;;;;;;;;;4962112;28;19925;-63
2022/06/01 18:46:20;;;;;;;;;;;;;;;;;;4964951;28;19925;-63
2022/06/01 18:48:51;;;;;;;;;;;;;;;;;;4942014;28;20281;-63
2022/06/01 18:54:03;;;;;;;;;;;;;;;;;;4966814;28;19921;-64
2022/06/01 18:56:28;;;;;;;;;;;;;;;;;;4951825;28;20349;-61
2022/06/01 18:58:56;;;;;;;;;;;;;;;;;;4968040;28;19918;-62